Tecate, CA (91987)

1:54 AM PST on February 23, 2017 (GMT -0800)
PROTECCION CIVIL BC (TECATE) | | Change Station

Elev 1739 ft 32.57 °N, 116.61 °W | Updated 14 minutes ago

Overcast
Overcast
47.0 °F
Feels Like 47 °F
N
0.0
Wind Variable Wind from WSW
Gusts 0.0 mph

Today
High -- | Low -- °F
--% Chance of Precip.
Yesterday
High -- | Low -- °F
Precip. -- in
Pressure 30.06 in
Visibility 10.0 miles
Clouds Scattered Clouds 3600 ft
Windchill 47 °F
Dew Point 43 °F
Humidity 86%
Rainfall 0.00 in
Snow Depth Not available.
6:20 AM 5:39 PM
Waning Crescent, 11% visible
METAR KSDM 230853Z AUTO 12003KT 10SM SCT036 08/07 A3006 RMK AO2 SLP178 T00830072 58006 TSNO
Pressure 30.06 in
Visibility 10.0 miles
Clouds Scattered Clouds 3600 ft
Windchill 47 °F
Dew Point 43 °F
Humidity 86%
Rainfall 0.00 in
Snow Depth Not available.
6:20 AM 5:39 PM
Waning Crescent, 11% visible
METAR KSDM 230853Z AUTO 12003KT 10SM SCT036 08/07 A3006 RMK AO2 SLP178 T00830072 58006 TSNO

Get Your Daily Forecast Email!

Thanks for signing up!

Be on the lookout for a verification email in your inbox.

You'll start receiving the daily forecast at 8 AM.

×

10-Day Weather Forecast

Almanac

Astronomy

Feb. 23, 2017 Rise Set
Actual Time
Civil Twilight
Nautical Twilight
Astronomical Twilight
Moon
Length of Visible Light
Length of Day
Tomorrow will be .
, % of the Moon is Illuminated

Today's Extremes

State Highs State Lows

Community

WunderPhotos

Upload Photos

1,962,540 photos uploaded!

WunderBlog® & News

Nearby

Air Quality

  Air Quality AQ Index Pollutant
Not available.

Snow Depth

Station Depth Elevation

Earthquake Activity

City Distance Mag. Time & Date
Minimum magnitude displayed is 2.5.

Coastal Water Temperatures

Place Temperature

Stations

Nearby Weather Stations

Station Location Temp. Windchill Dew Point Humidity Wind Precip. Elev Updated Type
                   

Watches & Warnings

There are currently no watches in effect.